69TX weather

Green Lake Ranch Airport
Bloomington, Texas, United States

Public forecast

Using degrees Fahrenheit for public forecast. Weather courtesy of forecast.io.

Closest aviation weather report (METAR) to Green Lake Ranch Airport

Closest report is Calhoun County Airport, 10.1 nm (18.6 km) ENE. Retrieved 2020/02/22 06:15 UTC (30 minutes ago):

KPKV 220615Z AUTO 00000KT 10SM CLR 08/03 A3050 RMK AO2 T00830030

Closest aviation forecast (TAF) to Green Lake Ranch Airport

Closest forecast is Victoria Regional Airport, 16.5 nm (30.6 km) NNW. Retrieved 2020/02/22 06:28 UTC (17 minutes ago):

TAF KVCT 220525Z 2206/2306 VRB03KT P6SM BKN250 FM221700 13006KT P6SM BKN050 FM230400 12005KT 4SM BR BKN030